Time;durP1;ratioP1;P1;durP2;ratioP2;P2;SDS_P1;SDS_P2;PMS_P1;PMS_P2;Temp;Humidity;BMP_temperature;BMP_pressure;BME280_temperature;BME280_humidity;BME280_pressure;Samples;Min_cycle;Max_cycle;Signal;HPM_P1;HPM_P2
2022/06/13 00:00:08;;;;;;;;;4.33;3.33;;;;;-143.57;100.00;65101.44;5100363;27;45405;-46
2022/06/13 00:02:34;;;;;;;;;2.33;2.33;;;;;-143.57;100.00;65101.44;5099912;27;45235;-44
2022/06/13 00:05:01;;;;;;;;;4.67;4.67;;;;;-143.57;100.00;65101.44;5099929;27;46146;-44
2022/06/13 00:07:26;;;;;;;;;5.67;4.33;;;;;-143.57;100.00;65101.44;5100135;27;45331;-44
2022/06/13 00:09:52;;;;;;;;;5.67;1.67;;;;;-143.57;100.00;65101.44;5100261;27;45186;-45
2022/06/13 00:12:17;;;;;;;;;6.00;2.67;;;;;-143.57;100.00;65101.44;5100217;27;45378;-45
2022/06/13 00:14:43;;;;;;;;;1.33;1.00;;;;;-143.57;100.00;65101.44;5099750;27;46188;-44
2022/06/13 00:17:08;;;;;;;;;4.00;2.00;;;;;-143.57;100.00;65101.44;5099521;27;45406;-44
2022/06/13 00:19:33;;;;;;;;;4.00;3.00;;;;;-143.57;100.00;65101.44;5099705;27;45379;-47
2022/06/13 00:21:59;;;;;;;;;2.00;2.00;;;;;-143.57;100.00;65101.44;5100320;27;45411;-44
2022/06/13 00:24:24;;;;;;;;;3.33;3.00;;;;;-143.57;100.00;65101.44;5099741;27;46905;-44
2022/06/13 00:26:49;;;;;;;;;4.00;4.00;;;;;-143.57;100.00;65101.44;5099599;27;45415;-44
2022/06/13 00:29:15;;;;;;;;;3.33;2.00;;;;;-143.57;100.00;65101.44;5099605;27;45310;-44
2022/06/13 00:31:41;;;;;;;;;3.67;2.33;;;;;-143.57;100.00;65101.44;5099985;27;45340;-45
2022/06/13 00:34:06;;;;;;;;;2.33;2.33;;;;;-143.57;100.00;65101.44;5099078;27;45478;-46
2022/06/13 00:36:31;;;;;;;;;4.00;2.33;;;;;-143.57;100.00;65101.44;5099348;27;45414;-43
2022/06/13 00:38:57;;;;;;;;;3.00;3.00;;;;;-143.57;100.00;65101.44;5099641;27;45629;-45
2022/06/13 00:41:27;;;;;;;;;4.00;4.00;;;;;-143.57;100.00;65101.44;5099649;27;45168;-47
2022/06/13 00:43:53;;;;;;;;;4.00;3.33;;;;;-143.57;100.00;65101.44;5099544;27;45437;-46
2022/06/13 00:46:21;;;;;;;;;5.33;4.00;;;;;-143.57;100.00;65101.44;5098920;27;45445;-45
2022/06/13 00:48:49;;;;;;;;;3.00;3.00;;;;;-143.57;100.00;65101.44;5098917;27;45378;-45
2022/06/13 00:51:14;;;;;;;;;2.00;2.00;;;;;-143.57;100.00;65101.44;5099653;27;45537;-47
2022/06/13 00:53:41;;;;;;;;;4.33;3.67;;;;;-143.57;100.00;65101.44;5099147;27;46068;-45
2022/06/13 00:56:14;;;;;;;;;3.00;2.00;;;;;-143.57;100.00;65101.44;5099253;27;45448;-47
2022/06/13 00:58:47;;;;;;;;;4.67;3.00;;;;;-143.57;100.00;65101.44;5099319;27;45427;-45
2022/06/13 01:01:13;;;;;;;;;3.33;2.33;;;;;-143.57;100.00;65101.44;5099420;27;45394;-45
2022/06/13 01:03:41;;;;;;;;;4.00;2.00;;;;;-143.57;100.00;65101.44;5098838;27;46091;-47
2022/06/13 01:06:07;;;;;;;;;3.00;2.00;;;;;-143.57;100.00;65101.44;5098913;27;45221;-44
2022/06/13 01:08:36;;;;;;;;;2.67;2.67;;;;;-143.57;100.00;65101.44;5099270;27;45444;-46
2022/06/13 01:11:17;;;;;;;;;4.67;3.00;;;;;-143.57;100.00;65101.44;5099336;27;45405;-47
2022/06/13 01:14:01;;;;;;;;;2.00;2.00;;;;;-143.57;100.00;65101.44;5099010;27;46087;-45
2022/06/13 01:16:35;;;;;;;;;5.33;4.67;;;;;-143.57;100.00;65101.44;5098837;27;45358;-47
2022/06/13 01:19:19;;;;;;;;;3.00;1.33;;;;;-143.57;100.00;65101.44;5098799;27;45181;-48
2022/06/13 01:22:10;;;;;;;;;3.00;3.00;;;;;-143.57;100.00;65101.44;5099008;27;45329;-47
2022/06/13 01:24:44;;;;;;;;;4.00;3.33;;;;;-143.57;100.00;65101.44;5015724;28;46177;-46
2022/06/13 01:27:37;;;;;;;;;3.00;3.00;;;;;-143.57;100.00;65101.44;5015699;28;45890;-47
2022/06/13 01:30:31;;;;;;;;;3.00;2.67;;;;;-143.57;100.00;65101.44;5015717;28;45324;-47
2022/06/13 01:33:08;;;;;;;;;5.67;2.00;;;;;-143.57;100.00;65101.44;5015410;28;45374;-47
2022/06/13 01:36:06;;;;;;;;;5.00;3.33;;;;;-143.57;100.00;65101.44;5015460;28;47274;-45
2022/06/13 01:38:51;;;;;;;;;2.67;2.67;;;;;-143.57;100.00;65101.44;5015561;28;45471;-47
2022/06/13 01:41:23;;;;;;;;;6.67;4.00;;;;;-143.57;100.00;65101.44;5015621;28;45309;-51
2022/06/13 01:44:10;;;;;;;;;2.67;2.67;;;;;-143.57;100.00;65101.44;5015719;28;45357;-44
2022/06/13 01:46:53;;;;;;;;;2.33;2.33;;;;;-143.57;100.00;65101.44;5015287;28;46945;-45
2022/06/13 01:49:50;;;;;;;;;6.00;3.67;;;;;-143.57;100.00;65101.44;5015256;28;45413;-48
2022/06/13 01:52:32;;;;;;;;;5.67;2.67;;;;;-143.57;100.00;65101.44;5015466;28;45343;-45
2022/06/13 01:55:10;;;;;;;;;3.00;2.00;;;;;-143.57;100.00;65101.44;5014491;28;45214;-45
2022/06/13 01:58:15;;;;;;;;;4.00;2.00;;;;;-143.57;100.00;65101.44;5015152;28;45448;-46
2022/06/13 02:00:51;;;;;;;;;4.00;3.33;;;;;-143.57;100.00;65101.44;4941912;28;45509;-44
2022/06/13 02:03:26;;;;;;;;;8.00;5.00;;;;;-143.57;100.00;65101.44;5015182;28;45339;-46
2022/06/13 02:06:06;;;;;;;;;9.00;4.67;;;;;-143.57;100.00;65101.44;5015346;28;45456;-46
2022/06/13 02:08:41;;;;;;;;;4.00;3.00;;;;;-143.57;100.00;65101.44;5015107;28;47335;-44
2022/06/13 02:11:25;;;;;;;;;7.00;4.00;;;;;-143.57;100.00;65101.44;5015017;28;45387;-45
2022/06/13 02:14:27;;;;;;;;;4.00;3.33;;;;;-143.57;100.00;65101.44;5014885;28;45495;-46
2022/06/13 02:16:56;;;;;;;;;6.00;5.00;;;;;-143.57;100.00;65101.44;4956290;28;45509;-45
2022/06/13 02:19:27;;;;;;;;;6.33;5.33;;;;;-143.57;100.00;65101.44;4955437;28;46156;-44
2022/06/13 02:21:58;;;;;;;;;12.00;5.33;;;;;-143.57;100.00;65101.44;4955858;28;45339;-45
2022/06/13 02:24:44;;;;;;;;;7.33;3.00;;;;;-143.57;100.00;65101.44;4956338;28;45379;-43
2022/06/13 02:27:11;;;;;;;;;5.67;5.33;;;;;-143.57;100.00;65101.44;4956150;28;45295;-48
2022/06/13 02:29:42;;;;;;;;;5.00;3.00;;;;;-143.57;100.00;65101.44;4955706;28;47314;-45
2022/06/13 02:32:32;;;;;;;;;5.67;4.00;;;;;-143.57;100.00;65101.44;4956330;28;45327;-47
2022/06/13 02:35:05;;;;;;;;;5.33;5.33;;;;;-143.57;100.00;65101.44;5007387;28;45429;-44
2022/06/13 02:37:37;;;;;;;;;3.00;3.00;;;;;-143.57;100.00;65101.44;5034991;28;45546;-48
2022/06/13 02:40:12;;;;;;;;;4.00;4.00;;;;;-143.57;100.00;65101.44;5033668;28;46325;-43
2022/06/13 02:42:52;;;;;;;;;7.67;5.33;;;;;-143.57;100.00;65101.44;5034438;28;45297;-45
2022/06/13 02:45:36;;;;;;;;;5.33;4.67;;;;;-143.57;100.00;65101.44;5034477;28;45412;-44
2022/06/13 02:48:14;;;;;;;;;6.00;5.00;;;;;-143.57;100.00;65101.44;5034784;28;45420;-46
2022/06/13 02:50:59;;;;;;;;;10.00;6.67;;;;;-143.57;100.00;65101.44;5034214;28;46055;-46
2022/06/13 02:53:39;;;;;;;;;6.00;5.00;;;;;-143.57;100.00;65101.44;5091598;27;45207;-44
2022/06/13 02:56:11;;;;;;;;;8.33;6.67;;;;;-143.57;100.00;65101.44;5097418;27;45267;-44
2022/06/13 02:59:10;;;;;;;;;3.67;0.00;;;;;-143.57;100.00;65101.44;5097620;27;45393;-46
2022/06/13 03:01:41;;;;;;;;;5.67;5.67;;;;;-143.57;100.00;65101.44;5097070;27;47064;-43
2022/06/13 03:04:22;;;;;;;;;7.67;5.33;;;;;-143.57;100.00;65101.44;5097016;27;45392;-48
2022/06/13 03:07:06;;;;;;;;;6.33;5.00;;;;;-143.57;100.00;65101.44;5097448;27;45432;-44
2022/06/13 03:09:49;;;;;;;;;8.00;6.67;;;;;-143.57;100.00;65101.44;5097446;27;45407;-46
2022/06/13 03:12:22;;;;;;;;;6.67;5.67;;;;;-143.57;100.00;65101.44;5100838;27;46448;-45
2022/06/13 03:15:01;;;;;;;;;5.00;5.00;;;;;-143.57;100.00;65101.44;5100676;27;45339;-45
2022/06/13 03:17:51;;;;;;;;;6.00;5.00;;;;;-143.57;100.00;65101.44;5100788;27;45398;-44
2022/06/13 03:20:25;;;;;;;;;5.00;5.00;;;;;-143.57;100.00;65101.44;5100714;27;45291;-47
2022/06/13 03:23:05;;;;;;;;;7.67;6.00;;;;;-143.57;100.00;65101.44;5100530;27;45933;-44
2022/06/13 03:25:47;;;;;;;;;12.67;7.00;;;;;-143.57;100.00;65101.44;5100425;27;45549;-45
2022/06/13 03:28:28;;;;;;;;;7.00;6.00;;;;;-143.57;100.00;65101.44;5100922;27;45161;-46
2022/06/13 03:31:07;;;;;;;;;7.33;4.33;;;;;-143.57;100.00;65101.44;5100892;27;45296;-47
2022/06/13 03:33:40;;;;;;;;;11.67;5.33;;;;;-143.57;100.00;65101.44;5100607;27;46511;-44
2022/06/13 03:36:29;;;;;;;;;7.33;5.00;;;;;-143.57;100.00;65101.44;5100186;27;45321;-44
2022/06/13 03:39:00;;;;;;;;;7.00;4.00;;;;;-143.57;100.00;65101.44;5017422;28;45385;-45
2022/06/13 03:41:33;;;;;;;;;6.00;3.00;;;;;-143.57;100.00;65101.44;5017577;28;45242;-46
2022/06/13 03:44:09;;;;;;;;;4.33;3.67;;;;;-143.57;100.00;65101.44;5017365;28;45409;-47
2022/06/13 03:46:52;;;;;;;;;9.00;4.33;;;;;-143.57;100.00;65101.44;5017335;28;45314;-47
2022/06/13 03:49:25;;;;;;;;;4.33;4.00;;;;;-143.57;100.00;65101.44;5016778;28;45724;-46
2022/06/13 03:51:54;;;;;;;;;4.67;4.33;;;;;-143.57;100.00;65101.44;5017292;28;45416;-46
2022/06/13 03:54:48;;;;;;;;;8.00;6.00;;;;;-143.57;100.00;65101.44;5017206;28;46321;-45
2022/06/13 03:57:22;;;;;;;;;6.00;5.00;;;;;-143.57;100.00;65101.44;5017052;28;45344;-46
2022/06/13 03:59:54;;;;;;;;;5.67;5.00;;;;;-143.57;100.00;65101.44;5017228;28;45461;-48
2022/06/13 04:02:25;;;;;;;;;5.33;5.33;;;;;-143.57;100.00;65101.44;5016977;28;45515;-45
2022/06/13 04:04:53;;;;;;;;;6.33;4.00;;;;;-143.57;100.00;65101.44;5016808;28;45412;-45
2022/06/13 04:07:21;;;;;;;;;3.67;3.67;;;;;-143.57;100.00;65101.44;5017048;28;45407;-45
2022/06/13 04:09:51;;;;;;;;;5.67;5.67;;;;;-143.57;100.00;65101.44;5016972;28;45430;-46
2022/06/13 04:12:22;;;;;;;;;6.00;4.00;;;;;-143.57;100.00;65101.44;5017086;28;45345;-46
2022/06/13 04:14:59;;;;;;;;;6.00;4.00;;;;;-143.57;100.00;65101.44;5016761;28;46197;-44
2022/06/13 04:17:49;;;;;;;;;8.00;5.67;;;;;-143.57;100.00;65101.44;5079315;28;45256;-45
2022/06/13 04:20:22;;;;;;;;;7.00;4.00;;;;;-143.57;100.00;65101.44;5079254;27;45484;-46
2022/06/13 04:23:20;;;;;;;;;6.00;6.00;;;;;-143.57;100.00;65101.44;5078228;28;45359;-44
2022/06/13 04:25:54;;;;;;;;;12.00;7.00;;;;;-143.57;100.00;65101.44;5079170;27;46395;-47
2022/06/13 04:28:37;;;;;;;;;6.00;5.00;;;;;-143.57;100.00;65101.44;5079265;28;45452;-44
2022/06/13 04:31:08;;;;;;;;;6.67;5.33;;;;;-143.57;100.00;65101.44;5079176;27;45740;-45
2022/06/13 04:33:46;;;;;;;;;7.00;6.33;;;;;-143.57;100.00;65101.44;5078386;27;45430;-45
2022/06/13 04:36:14;;;;;;;;;8.33;4.33;;;;;-143.57;100.00;65101.44;5079071;27;46425;-45
2022/06/13 04:38:51;;;;;;;;;8.00;6.33;;;;;-143.57;100.00;65101.44;5079094;28;45381;-45
2022/06/13 04:41:21;;;;;;;;;11.33;6.00;;;;;-143.57;100.00;65101.44;5079109;27;45422;-46
2022/06/13 04:43:51;;;;;;;;;4.00;4.00;;;;;-143.57;100.00;65101.44;5079208;27;45330;-46
2022/06/13 04:46:20;;;;;;;;;7.00;7.00;;;;;-143.57;100.00;65101.44;5078752;27;46375;-46
2022/06/13 04:48:49;;;;;;;;;6.67;4.33;;;;;-143.57;100.00;65101.44;5078908;28;45219;-44
2022/06/13 04:51:19;;;;;;;;;6.33;5.33;;;;;-143.57;100.00;65101.44;5078897;27;45311;-47
2022/06/13 04:53:56;;;;;;;;;6.33;5.00;;;;;-143.57;100.00;65101.44;5079324;27;45165;-47
2022/06/13 04:56:23;;;;;;;;;6.00;6.00;;;;;-143.57;100.00;65101.44;5078499;28;45376;-46
2022/06/13 04:58:52;;;;;;;;;9.00;5.00;;;;;-143.57;100.00;65101.44;5078883;27;45610;-46
2022/06/13 05:01:41;;;;;;;;;11.00;7.67;;;;;-143.57;100.00;65101.44;5078862;27;45482;-46
2022/06/13 05:04:12;;;;;;;;;8.00;7.00;;;;;-143.57;100.00;65101.44;5079037;28;45261;-44
2022/06/13 05:06:44;;;;;;;;;9.33;5.00;;;;;-143.57;100.00;65101.44;5078501;27;45364;-47
2022/06/13 05:09:18;;;;;;;;;6.33;6.00;;;;;-143.57;100.00;65101.44;5078525;27;45301;-45
2022/06/13 05:11:56;;;;;;;;;8.00;5.00;;;;;-143.57;100.00;65101.44;5078813;28;45369;-47
2022/06/13 05:14:29;;;;;;;;;5.33;4.67;;;;;-143.57;100.00;65101.44;5079108;27;45252;-45
2022/06/13 05:17:41;;;;;;;;;5.67;5.33;;;;;-143.57;100.00;65101.44;5078191;27;46350;-46
2022/06/13 05:20:10;;;;;;;;;10.67;6.00;;;;;-143.57;100.00;65101.44;4995702;28;45504;-45
2022/06/13 05:23:01;;;;;;;;;14.00;7.00;;;;;-143.57;100.00;65101.44;4995988;28;45344;-45
2022/06/13 05:25:43;;;;;;;;;7.00;5.33;;;;;-143.57;100.00;65101.44;4996142;28;45476;-47
2022/06/13 05:28:13;;;;;;;;;9.33;8.67;;;;;-143.57;100.00;65101.44;4995927;28;46390;-47
2022/06/13 05:30:41;;;;;;;;;7.00;7.00;;;;;-143.57;100.00;65101.44;4995756;28;45413;-45
2022/06/13 05:33:10;;;;;;;;;9.67;4.33;;;;;-143.57;100.00;65101.44;4995869;28;45548;-45
2022/06/13 05:35:35;;;;;;;;;6.50;6.50;;;;;-143.57;100.00;65101.44;4995758;28;45354;-47
2022/06/13 05:38:02;;;;;;;;;7.33;4.33;;;;;-143.57;100.00;65101.44;4995667;28;45354;-46
2022/06/13 05:40:28;;;;;;;;;6.00;5.67;;;;;-143.57;100.00;65101.44;4995923;28;45498;-45
2022/06/13 05:42:54;;;;;;;;;10.67;6.00;;;;;-143.57;100.00;65101.44;4995083;28;45406;-46
2022/06/13 05:45:22;;;;;;;;;7.00;5.00;;;;;-143.57;100.00;65101.44;4995781;28;45558;-46
2022/06/13 05:47:49;;;;;;;;;6.67;4.33;;;;;-143.57;100.00;65101.44;4995516;28;46541;-46
2022/06/13 05:50:18;;;;;;;;;9.67;5.33;;;;;-143.57;100.00;65101.44;4995435;28;45417;-44
2022/06/13 05:52:44;;;;;;;;;5.67;4.00;;;;;-143.57;100.00;65101.44;4995662;28;46103;-46
2022/06/13 05:55:11;;;;;;;;;5.67;5.67;;;;;-143.57;100.00;65101.44;4995922;28;45341;-46
2022/06/13 05:57:38;;;;;;;;;7.67;5.00;;;;;-143.57;100.00;65101.44;5073940;27;46193;-45
2022/06/13 06:00:05;;;;;;;;;7.33;5.00;;;;;-143.57;100.00;65101.44;5077863;27;45249;-46
2022/06/13 06:02:30;;;;;;;;;8.00;4.00;;;;;-143.57;100.00;65101.44;5059692;28;45394;-48
2022/06/13 06:04:56;;;;;;;;;8.00;6.00;;;;;-143.57;100.00;65101.44;5078171;27;45371;-46
2022/06/13 06:07:21;;;;;;;;;12.00;7.67;;;;;-143.57;100.00;65101.44;5077579;27;46361;-45
2022/06/13 06:09:46;;;;;;;;;10.00;7.00;;;;;-143.57;100.00;65101.44;5078205;28;45271;-45
2022/06/13 06:12:12;;;;;;;;;11.33;6.00;;;;;-143.57;100.00;65101.44;5078652;28;45709;-48
2022/06/13 06:14:37;;;;;;;;;6.33;6.33;;;;;-143.57;100.00;65101.44;5078483;27;45170;-45
2022/06/13 06:17:03;;;;;;;;;10.67;7.33;;;;;-143.57;100.00;65101.44;5077984;28;46044;-48
2022/06/13 06:19:29;;;;;;;;;6.67;5.67;;;;;-143.57;100.00;65101.44;5077774;27;45347;-44
2022/06/13 06:21:55;;;;;;;;;11.00;7.00;;;;;-143.57;100.00;65101.44;5077523;27;45418;-49
2022/06/13 06:24:20;;;;;;;;;15.00;6.33;;;;;-143.57;100.00;65101.44;5077672;27;45454;-48
2022/06/13 06:26:45;;;;;;;;;11.33;5.00;;;;;-143.57;100.00;65101.44;5077309;28;45693;-48
2022/06/13 06:29:11;;;;;;;;;14.67;6.67;;;;;-143.57;100.00;65101.44;5077493;28;45245;-46
2022/06/13 06:31:37;;;;;;;;;8.00;7.00;;;;;-143.57;100.00;65101.44;5077484;28;45488;-53
2022/06/13 06:34:02;;;;;;;;;7.33;5.67;;;;;-143.57;100.00;65101.44;5077537;28;45347;-45
2022/06/13 06:36:29;;;;;;;;;10.67;5.00;;;;;-143.57;100.00;65101.44;5083327;27;45301;-45
2022/06/13 06:38:55;;;;;;;;;9.00;6.00;;;;;-143.57;100.00;65101.44;5097738;27;45240;-46
2022/06/13 06:41:20;;;;;;;;;14.00;9.00;;;;;-143.57;100.00;65101.44;5097692;27;45291;-51
2022/06/13 06:43:45;;;;;;;;;8.00;7.00;;;;;-143.57;100.00;65101.44;5097970;27;45334;-46
2022/06/13 06:46:11;;;;;;;;;7.50;6.00;;;;;-143.57;100.00;65101.44;5096712;27;45323;-47
2022/06/13 06:48:37;;;;;;;;;7.25;7.00;;;;;-143.57;100.00;65101.44;5097816;27;45201;-44
2022/06/13 06:51:09;;;;;;;;;13.75;8.75;;;;;-143.57;100.00;65101.44;5097529;27;45293;-48
2022/06/13 07:01:49;;;;;;;;;11.80;6.40;;;;;-143.57;100.00;65101.44;5054745;28;45380;-47
2022/06/13 07:04:14;;;;;;;;;6.00;5.00;;;;;-143.57;100.00;65101.44;5054954;28;45245;-47
2022/06/13 07:06:40;;;;;;;;;8.75;6.00;;;;;-143.57;100.00;65101.44;5053959;28;45366;-48
2022/06/13 07:09:06;;;;;;;;;5.60;3.40;;;;;-143.57;100.00;65101.44;5054464;28;45372;-45
2022/06/13 07:14:17;;;;;;;;;7.60;4.20;;;;;-143.57;100.00;65101.44;5054656;28;45347;-45
2022/06/13 07:16:42;;;;;;;;;7.75;6.75;;;;;-143.57;100.00;65101.44;5054328;28;46354;-46
2022/06/13 07:19:08;;;;;;;;;6.00;6.00;;;;;-143.57;100.00;65101.44;5054133;28;45378;-48
2022/06/13 07:21:33;;;;;;;;;4.50;2.75;;;;;-143.57;100.00;65101.44;5054548;28;45388;-46
2022/06/13 07:23:59;;;;;;;;;4.25;4.25;;;;;-143.57;100.00;65101.44;5054653;28;45616;-46
2022/06/13 07:26:24;;;;;;;;;7.75;5.00;;;;;-143.57;100.00;65101.44;5054393;28;46033;-48
2022/06/13 07:28:49;;;;;;;;;7.25;5.75;;;;;-143.57;100.00;65101.44;5054333;28;45365;-45
2022/06/13 07:31:21;;;;;;;;;13.50;6.75;;;;;-143.57;100.00;65101.44;5054133;28;45938;-47
2022/06/13 07:33:48;;;;;;;;;4.40;3.60;;;;;-143.57;100.00;65101.44;5068554;28;45161;-45
2022/06/13 07:36:15;;;;;;;;;8.60;5.80;;;;;-143.57;100.00;65101.44;5076421;28;46266;-45
2022/06/13 07:38:40;;;;;;;;;4.20;2.60;;;;;-143.57;100.00;65101.44;5076399;28;45435;-46
2022/06/13 07:41:06;;;;;;;;;8.50;4.00;;;;;-143.57;100.00;65101.44;5076571;28;45370;-47
2022/06/13 07:43:34;;;;;;;;;5.00;2.80;;;;;-143.57;100.00;65101.44;5076675;28;45316;-44
2022/06/13 07:46:03;;;;;;;;;6.60;3.20;;;;;-143.57;100.00;65101.44;5075907;27;47217;-47
2022/06/13 07:48:29;;;;;;;;;3.00;3.00;;;;;-143.57;100.00;65101.44;5075821;28;45303;-49
2022/06/13 07:50:55;;;;;;;;;5.75;2.50;;;;;-143.57;100.00;65101.44;5076049;27;45403;-47
2022/06/13 07:53:21;;;;;;;;;4.60;3.00;;;;;-143.57;100.00;65101.44;5076666;28;45273;-47
2022/06/13 07:55:46;;;;;;;;;4.25;3.50;;;;;-143.57;100.00;65101.44;5076366;28;45458;-47
2022/06/13 07:58:19;;;;;;;;;4.25;3.00;;;;;-143.57;100.00;65101.44;5078561;27;45276;-45
2022/06/13 08:00:48;;;;;;;;;3.60;3.20;;;;;-143.57;100.00;65101.44;5079780;27;45387;-48
2022/06/13 08:03:18;;;;;;;;;5.40;3.60;;;;;-143.57;100.00;65101.44;5079946;27;45467;-48
2022/06/13 08:05:44;;;;;;;;;3.20;3.00;;;;;-143.57;100.00;65101.44;5079408;27;45413;-44
2022/06/13 08:08:09;;;;;;;;;6.25;3.00;;;;;-143.57;100.00;65101.44;5078981;27;45438;-48
2022/06/13 08:10:37;;;;;;;;;6.00;4.00;;;;;-143.57;100.00;65101.44;5079653;27;45331;-45
2022/06/13 08:13:03;;;;;;;;;7.20;3.40;;;;;-143.57;100.00;65101.44;5079757;27;45391;-49
2022/06/13 08:15:28;;;;;;;;;4.00;2.25;;;;;-143.57;100.00;65101.44;5079510;27;45368;-46
2022/06/13 08:17:55;;;;;;;;;4.00;3.25;;;;;-143.57;100.00;65101.44;5079395;27;45390;-45
2022/06/13 08:20:21;;;;;;;;;3.00;3.00;;;;;-143.57;100.00;65101.44;5079353;28;45307;-45
2022/06/13 08:22:48;;;;;;;;;3.25;3.00;;;;;-143.57;100.00;65101.44;5079626;27;45211;-48
2022/06/13 08:25:20;;;;;;;;;5.80;3.80;;;;;-143.57;100.00;65101.44;5079175;27;45409;-50
2022/06/13 08:27:46;;;;;;;;;5.00;3.00;;;;;-143.57;100.00;65101.44;5079400;27;45296;-45
2022/06/13 08:30:11;;;;;;;;;4.50;2.00;;;;;-143.57;100.00;65101.44;5079447;28;45173;-45
2022/06/13 08:32:37;;;;;;;;;6.00;3.75;;;;;-143.57;100.00;65101.44;5079750;27;45216;-48
2022/06/13 08:35:03;;;;;;;;;6.00;3.50;;;;;-143.57;100.00;65101.44;5079256;28;45225;-45
2022/06/13 08:37:28;;;;;;;;;4.75;2.25;;;;;-143.57;100.00;65101.44;5078981;27;45382;-48
2022/06/13 08:39:54;;;;;;;;;4.00;2.50;;;;;-143.57;100.00;65101.44;5079390;28;45351;-48
2022/06/13 08:42:31;;;;;;;;;5.00;3.00;;;;;-143.57;100.00;65101.44;5079201;27;45398;-46
2022/06/13 08:45:25;;;;;;;;;2.40;2.40;;;;;-143.57;100.00;65101.44;5078905;27;46258;-46
2022/06/13 08:48:20;;;;;;;;;2.40;1.80;;;;;-143.57;100.00;65101.44;5078887;27;45374;-45
2022/06/13 08:51:15;;;;;;;;;2.20;2.20;;;;;-143.57;100.00;65101.44;5078960;28;45415;-49
2022/06/13 08:53:49;;;;;;;;;2.20;1.80;;;;;-143.57;100.00;65101.44;5079012;27;45468;-45
2022/06/13 08:56:18;;;;;;;;;2.20;2.20;;;;;-143.57;100.00;65101.44;5078729;28;46317;-45
2022/06/13 08:59:22;;;;;;;;;6.80;2.80;;;;;-143.57;100.00;65101.44;5078755;27;45305;-47
2022/06/13 09:01:50;;;;;;;;;3.40;2.20;;;;;-143.57;100.00;65101.44;5078850;27;45428;-47
2022/06/13 09:04:30;;;;;;;;;3.60;2.40;;;;;-143.57;100.00;65101.44;5079107;28;45261;-45
2022/06/13 09:07:10;;;;;;;;;2.00;1.20;;;;;-143.57;100.00;65101.44;5078811;27;45992;-46
2022/06/13 09:09:47;;;;;;;;;5.80;3.60;;;;;-143.57;100.00;65101.44;5078084;28;45468;-50
2022/06/13 09:12:22;;;;;;;;;2.80;2.80;;;;;-143.57;100.00;65101.44;5087161;27;45485;-48
2022/06/13 09:14:59;;;;;;;;;2.80;2.80;;;;;-143.57;100.00;65101.44;5097776;27;45314;-46
2022/06/13 09:17:37;;;;;;;;;3.80;2.80;;;;;-143.57;100.00;65101.44;5098460;27;45499;-45
2022/06/13 09:20:17;;;;;;;;;2.00;1.80;;;;;-143.57;100.00;65101.44;5098832;27;45371;-44
2022/06/13 09:22:46;;;;;;;;;4.00;3.60;;;;;-143.57;100.00;65101.44;5098864;27;45426;-52
2022/06/13 09:25:23;;;;;;;;;8.80;4.60;;;;;-143.57;100.00;65101.44;5099272;27;45382;-46
2022/06/13 09:27:57;;;;;;;;;3.20;3.20;;;;;-143.57;100.00;65101.44;5098698;27;46098;-48
2022/06/13 09:30:32;;;;;;;;;3.40;2.40;;;;;-143.57;100.00;65101.44;5098899;27;45482;-52
2022/06/13 09:33:05;;;;;;;;;5.40;2.00;;;;;-143.57;100.00;65101.44;5098722;27;45404;-45
2022/06/13 09:35:43;;;;;;;;;4.80;1.80;;;;;-143.57;100.00;65101.44;5098798;27;46126;-50
2022/06/13 09:38:15;;;;;;;;;5.80;4.80;;;;;-143.57;100.00;65101.44;5097476;27;45317;-46
2022/06/13 09:40:48;;;;;;;;;3.60;2.40;;;;;-143.57;100.00;65101.44;5098509;27;45444;-48
2022/06/13 09:43:35;;;;;;;;;2.40;2.40;;;;;-143.57;100.00;65101.44;5098103;27;45429;-48
2022/06/13 09:46:18;;;;;;;;;3.20;1.80;;;;;-143.57;100.00;65101.44;5098324;27;45330;-45
2022/06/13 09:48:59;;;;;;;;;0.40;0.00;;;;;-143.57;100.00;65101.44;5090672;27;47322;-45
2022/06/13 09:51:31;;;;;;;;;2.20;0.80;;;;;-143.57;100.00;65101.44;5077592;28;45418;-52
2022/06/13 09:54:35;;;;;;;;;5.00;3.60;;;;;-143.57;100.00;65101.44;5077893;28;45344;-46
2022/06/13 09:57:10;;;;;;;;;2.60;2.60;;;;;-143.57;100.00;65101.44;5070253;27;45635;-46
2022/06/13 09:59:35;;;;;;;;;4.40;3.00;;;;;-143.57;100.00;65101.44;5077457;28;46216;-46
2022/06/13 10:02:17;;;;;;;;;1.75;1.75;;;;;-143.57;100.00;65101.44;5077728;27;45370;-51
2022/06/13 10:05:12;;;;;;;;;5.80;3.20;;;;;-143.57;100.00;65101.44;5077746;27;45286;-44
2022/06/13 10:08:13;;;;;;;;;2.00;2.00;;;;;-143.57;100.00;65101.44;5077899;27;45394;-44
2022/06/13 10:11:08;;;;;;;;;4.00;2.60;;;;;-143.57;100.00;65101.44;5058923;28;46176;-45
2022/06/13 10:14:05;;;;;;;;;6.00;3.00;;;;;-143.57;100.00;65101.44;5077367;27;45323;-52
2022/06/13 10:16:42;;;;;;;;;1.80;1.80;;;;;-143.57;100.00;65101.44;5077423;27;45354;-47
2022/06/13 10:19:16;;;;;;;;;3.00;2.80;;;;;-143.57;100.00;65101.44;5077110;28;45382;-53
2022/06/13 10:21:48;;;;;;;;;3.20;3.20;;;;;-143.57;100.00;65101.44;5077050;27;47081;-50
2022/06/13 10:24:16;;;;;;;;;5.60;2.00;;;;;-143.57;100.00;65101.44;5077378;27;45307;-47
2022/06/13 10:26:56;;;;;;;;;3.60;2.80;;;;;-143.57;100.00;65101.44;5077361;28;45338;-48
2022/06/13 10:29:43;;;;;;;;;2.00;2.00;;;;;-143.57;100.00;65101.44;5077654;28;45440;-44
2022/06/13 10:32:33;;;;;;;;;4.20;2.60;;;;;-143.57;100.00;65101.44;5076993;27;46250;-46
2022/06/13 10:35:13;;;;;;;;;4.60;3.20;;;;;-143.57;100.00;65101.44;5076953;28;45259;-48
2022/06/13 10:37:53;;;;;;;;;4.00;4.00;;;;;-143.57;100.00;65101.44;5077152;28;45331;-47
2022/06/13 10:40:18;;;;;;;;;3.00;3.00;;;;;-143.57;100.00;65101.44;5077298;28;45394;-44
2022/06/13 10:42:45;;;;;;;;;3.25;3.25;;;;;-143.57;100.00;65101.44;5076948;27;46208;-47
2022/06/13 10:45:13;;;;;;;;;4.40;2.20;;;;;-143.57;100.00;65101.44;5076884;27;45334;-48
2022/06/13 10:47:47;;;;;;;;;3.00;2.80;;;;;-143.57;100.00;65101.44;5077059;27;45375;-45
2022/06/13 10:50:21;;;;;;;;;5.80;4.00;;;;;-143.57;100.00;65101.44;5077166;28;45319;-47
2022/06/13 10:52:52;;;;;;;;;4.60;2.00;;;;;-143.57;100.00;65101.44;5076760;27;47200;-47
2022/06/13 10:55:22;;;;;;;;;4.00;2.40;;;;;-143.57;100.00;65101.44;5076895;28;45359;-49
2022/06/13 10:58:04;;;;;;;;;3.00;3.00;;;;;-143.57;100.00;65101.44;5076902;28;45353;-47
2022/06/13 11:00:30;;;;;;;;;1.40;0.40;;;;;-143.57;100.00;65101.44;5077332;28;45376;-47
2022/06/13 11:03:12;;;;;;;;;4.60;2.60;;;;;-143.57;100.00;65101.44;5076721;28;46387;-49
2022/06/13 11:05:50;;;;;;;;;5.20;3.60;;;;;-143.57;100.00;65101.44;5076676;27;45335;-49
2022/06/13 11:08:16;;;;;;;;;6.20;3.20;;;;;-143.57;100.00;65101.44;5077063;28;45371;-45
2022/06/13 11:10:55;;;;;;;;;4.00;2.25;;;;;-143.57;100.00;65101.44;5076766;28;45287;-45
2022/06/13 11:13:28;;;;;;;;;3.20;2.20;;;;;-143.57;100.00;65101.44;5076628;27;47162;-48
2022/06/13 11:25:02;;;;;;;;;4.00;3.00;;;;;-143.57;100.00;65101.44;5033701;28;45371;-47
2022/06/13 11:27:42;;;;;;;;;3.60;3.60;;;;;-143.57;100.00;65101.44;5033915;28;45784;-45
2022/06/13 11:30:36;;;;;;;;;5.80;3.00;;;;;-143.57;100.00;65101.44;5033353;28;45351;-44
2022/06/13 11:33:10;;;;;;;;;3.60;3.60;;;;;-143.57;100.00;65101.44;5037534;28;45458;-46
2022/06/13 11:35:47;;;;;;;;;9.80;5.00;;;;;-143.57;100.00;65101.44;5036874;28;45832;-44
2022/06/13 11:38:12;;;;;;;;;6.80;6.80;;;;;-143.57;100.00;65101.44;5036850;28;45570;-47
2022/06/13 11:40:38;;;;;;;;;4.00;4.00;;;;;-143.57;100.00;65101.44;5037218;28;45419;-52
2022/06/13 11:43:03;;;;;;;;;4.00;3.00;;;;;-143.57;100.00;65101.44;5037294;28;45560;-50
2022/06/13 11:45:29;;;;;;;;;3.50;3.25;;;;;-143.57;100.00;65101.44;5037388;28;46078;-46
2022/06/13 11:47:54;;;;;;;;;4.25;2.25;;;;;-143.57;100.00;65101.44;5037227;28;45550;-46
2022/06/13 11:50:29;;;;;;;;;5.50;5.50;;;;;-143.57;100.00;65101.44;5081811;27;45292;-47
2022/06/13 11:55:55;;;;;;;;;5.00;2.60;;;;;-143.57;100.00;65101.44;5100021;27;45166;-47
2022/06/13 11:58:30;;;;;;;;;4.40;4.00;;;;;-143.57;100.00;65101.44;5100018;27;45505;-50
2022/06/13 12:01:22;;;;;;;;;3.00;2.00;;;;;-143.57;100.00;65101.44;5100109;27;45299;-46